createdAt,value
2022-07-29T00:00:16.197Z,2.35
2022-07-29T00:01:47.941Z,3.28
2022-07-29T00:03:19.787Z,2.70
2022-07-29T00:04:51.620Z,2.58
2022-07-29T00:06:23.445Z,2.67
2022-07-29T00:07:55.227Z,2.63
2022-07-29T00:09:26.967Z,2.70
2022-07-29T00:10:58.694Z,2.42
2022-07-29T00:12:30.461Z,3.05
2022-07-29T00:14:02.312Z,2.67
2022-07-29T00:15:35.435Z,2.70
2022-07-29T00:17:07.158Z,3.08
2022-07-29T00:18:40.333Z,2.78
2022-07-29T00:20:12.270Z,2.60
2022-07-29T00:21:44.224Z,2.72
2022-07-29T00:23:15.940Z,2.92
2022-07-29T00:24:48.690Z,2.90
2022-07-29T00:26:20.379Z,2.80
2022-07-29T00:27:52.067Z,2.40
2022-07-29T00:29:39.173Z,2.80
2022-07-29T00:31:12.349Z,2.90
2022-07-29T00:32:44.142Z,2.85
2022-07-29T00:34:42.192Z,2.40
2022-07-29T00:36:14.038Z,2.55
2022-07-29T00:37:45.822Z,2.85
2022-07-29T00:39:17.511Z,2.88
2022-07-29T00:40:49.373Z,2.50
2022-07-29T00:42:21.106Z,2.83
2022-07-29T00:43:52.805Z,2.60
2022-07-29T00:45:24.574Z,2.80
2022-07-29T00:46:57.761Z,2.70
2022-07-29T00:48:29.546Z,2.45
2022-07-29T00:50:01.521Z,2.53
2022-07-29T00:51:33.224Z,2.60
2022-07-29T00:53:08.155Z,2.50
2022-07-29T00:54:44.434Z,2.75
2022-07-29T00:56:16.708Z,2.53
2022-07-29T00:57:48.842Z,2.90
2022-07-29T00:59:20.791Z,2.80
2022-07-29T01:00:53.332Z,2.88
2022-07-29T01:02:26.613Z,2.97
2022-07-29T01:03:58.611Z,3.10
2022-07-29T01:05:48.246Z,2.88
2022-07-29T01:07:22.917Z,2.45
2022-07-29T01:08:55.022Z,3.00
2022-07-29T01:10:28.348Z,3.05
2022-07-29T01:12:01.079Z,2.95
2022-07-29T01:13:34.275Z,2.55
2022-07-29T01:15:08.825Z,2.75
2022-07-29T01:16:46.850Z,2.70
2022-07-29T01:18:25.105Z,3.28
2022-07-29T01:20:02.678Z,2.80
2022-07-29T01:21:51.161Z,2.88
2022-07-29T01:23:41.922Z,2.70
2022-07-29T01:25:33.470Z,2.78
2022-07-29T01:27:23.298Z,2.75
2022-07-29T01:29:04.058Z,2.85
2022-07-29T01:30:41.170Z,2.72
2022-07-29T01:32:28.193Z,2.63
2022-07-29T01:34:05.211Z,2.88
2022-07-29T01:35:40.965Z,3.40
2022-07-29T01:37:19.211Z,2.65
2022-07-29T01:38:58.072Z,3.00
2022-07-29T01:40:35.793Z,3.03
2022-07-29T01:42:13.711Z,3.25
2022-07-29T01:43:52.718Z,3.20
2022-07-29T01:45:33.010Z,2.95
2022-07-29T01:47:11.746Z,3.05
2022-07-29T01:48:48.225Z,3.30
2022-07-29T01:50:24.316Z,3.45
2022-07-29T01:51:59.790Z,3.00
2022-07-29T01:53:38.269Z,3.05
2022-07-29T01:55:14.969Z,3.60
2022-07-29T01:56:50.730Z,3.20
2022-07-29T01:58:24.002Z,3.47
2022-07-29T01:59:58.478Z,3.10
2022-07-29T02:01:33.746Z,3.60
2022-07-29T02:03:10.591Z,3.15
2022-07-29T02:04:45.612Z,2.90
2022-07-29T02:06:22.318Z,3.00
2022-07-29T02:07:56.737Z,2.75
2022-07-29T02:09:29.612Z,3.10
2022-07-29T02:11:02.424Z,3.65
2022-07-29T02:12:36.577Z,2.90
2022-07-29T02:14:10.898Z,3.03
2022-07-29T02:15:44.588Z,2.83
2022-07-29T02:17:23.379Z,2.90
2022-07-29T02:18:56.642Z,2.80
2022-07-29T02:20:29.761Z,2.58
2022-07-29T02:22:02.566Z,2.80
2022-07-29T02:23:50.918Z,2.65
2022-07-29T02:25:25.326Z,3.10
2022-07-29T02:27:10.598Z,3.33
2022-07-29T02:28:42.473Z,2.92
2022-07-29T02:30:14.475Z,3.17
2022-07-29T02:31:48.163Z,3.22
2022-07-29T02:33:24.289Z,3.20
2022-07-29T02:34:57.524Z,3.15
2022-07-29T02:36:30.821Z,3.30
2022-07-29T02:38:22.647Z,3.25
2022-07-29T02:39:56.171Z,3.20
2022-07-29T02:41:31.296Z,3.42
2022-07-29T02:43:05.261Z,2.95
2022-07-29T02:44:37.736Z,3.17
2022-07-29T02:46:29.043Z,3.10
2022-07-29T02:48:07.207Z,3.03
2022-07-29T02:49:46.799Z,3.05
2022-07-29T02:51:43.607Z,3.08
2022-07-29T02:53:19.765Z,2.60
2022-07-29T02:54:56.392Z,2.70
2022-07-29T02:56:35.760Z,2.95
2022-07-29T02:58:15.149Z,2.72
2022-07-29T02:59:50.799Z,3.00
2022-07-29T03:01:25.279Z,2.70
2022-07-29T03:03:00.358Z,2.90
2022-07-29T03:04:35.283Z,2.83
2022-07-29T03:06:09.543Z,2.90
2022-07-29T03:08:04.904Z,2.88
2022-07-29T03:09:37.560Z,3.05
2022-07-29T03:11:10.537Z,2.97
2022-07-29T03:12:43.647Z,2.90
2022-07-29T03:14:18.161Z,2.50
2022-07-29T03:15:50.790Z,2.80
2022-07-29T03:17:23.468Z,2.90
2022-07-29T03:18:56.130Z,2.70
2022-07-29T03:20:28.066Z,2.85
2022-07-29T03:22:01.678Z,3.03
2022-07-29T03:23:36.976Z,3.00
2022-07-29T03:25:09.731Z,2.80
2022-07-29T03:26:41.439Z,2.85
2022-07-29T03:28:13.182Z,3.15
2022-07-29T03:29:49.727Z,3.15
2022-07-29T03:31:22.036Z,3.15
2022-07-29T03:32:54.088Z,2.80
2022-07-29T03:34:28.333Z,3.25
2022-07-29T03:36:00.048Z,3.25
2022-07-29T03:37:34.386Z,3.42
2022-07-29T03:39:07.858Z,3.25
2022-07-29T03:40:43.994Z,3.55
2022-07-29T03:42:17.547Z,3.70
2022-07-29T03:43:52.476Z,3.50
2022-07-29T03:45:26.130Z,3.65
2022-07-29T03:47:02.904Z,3.40
2022-07-29T03:48:37.560Z,3.20
2022-07-29T03:50:12.903Z,3.33
2022-07-29T03:51:44.890Z,3.40
2022-07-29T03:53:18.491Z,3.42
2022-07-29T03:54:50.568Z,3.30
2022-07-29T03:56:24.305Z,3.40
2022-07-29T03:57:58.575Z,3.50
2022-07-29T03:59:33.626Z,3.47
2022-07-29T04:01:05.468Z,2.90
2022-07-29T04:02:38.866Z,3.05
2022-07-29T04:04:11.042Z,3.97
2022-07-29T04:05:42.761Z,3.70
2022-07-29T04:07:15.325Z,3.65
2022-07-29T04:08:48.681Z,3.65
2022-07-29T04:10:30.335Z,3.90
2022-07-29T04:12:04.643Z,4.40
2022-07-29T04:13:36.453Z,3.50
2022-07-29T04:15:09.526Z,3.70
2022-07-29T04:16:41.195Z,3.70
2022-07-29T04:18:12.933Z,3.83
2022-07-29T04:19:44.687Z,3.30
2022-07-29T04:21:16.404Z,3.70
2022-07-29T04:22:48.097Z,3.45
2022-07-29T04:24:21.472Z,3.33
2022-07-29T04:25:53.184Z,3.90
2022-07-29T04:27:25.072Z,3.65
2022-07-29T04:28:56.858Z,4.05
2022-07-29T04:30:29.085Z,4.32
2022-07-29T04:32:00.782Z,4.32
2022-07-29T04:33:32.521Z,4.25
2022-07-29T04:35:04.978Z,3.83
2022-07-29T04:36:36.696Z,4.10
2022-07-29T04:38:15.895Z,4.32
2022-07-29T04:39:50.318Z,3.72
2022-07-29T04:41:22.025Z,4.13
2022-07-29T04:42:53.811Z,4.15
2022-07-29T04:44:28.379Z,4.82
2022-07-29T04:46:01.323Z,4.32
2022-07-29T04:47:33.148Z,4.80
2022-07-29T04:49:05.201Z,4.88
2022-07-29T04:50:39.048Z,5.68
2022-07-29T04:52:10.818Z,6.03
2022-07-29T04:53:42.598Z,6.07
2022-07-29T04:55:16.018Z,6.00
2022-07-29T04:56:47.891Z,6.53
2022-07-29T04:58:19.638Z,5.50
2022-07-29T04:59:51.324Z,5.88
2022-07-29T05:01:23.153Z,6.50
2022-07-29T05:02:55.110Z,6.55
2022-07-29T05:04:26.883Z,6.05
2022-07-29T05:05:58.582Z,6.05
2022-07-29T05:07:30.492Z,5.13
2022-07-29T05:09:02.226Z,4.88
2022-07-29T05:10:38.955Z,5.80
2022-07-29T05:12:10.837Z,5.18
2022-07-29T05:13:45.040Z,5.82
2022-07-29T05:15:18.735Z,4.63
2022-07-29T05:16:52.022Z,4.40
2022-07-29T05:18:26.107Z,4.72
2022-07-29T05:19:58.187Z,4.53
2022-07-29T05:21:29.868Z,4.25
2022-07-29T05:23:02.638Z,5.38
2022-07-29T05:24:34.444Z,4.10
2022-07-29T05:26:07.487Z,4.28
2022-07-29T05:27:39.211Z,4.30
2022-07-29T05:29:44.638Z,4.30
2022-07-29T05:31:04.000Z,4.50
2022-07-29T05:32:35.741Z,3.92
2022-07-29T05:34:07.494Z,4.28
2022-07-29T05:35:39.205Z,4.80
2022-07-29T05:37:11.069Z,4.20
2022-07-29T05:38:42.840Z,4.32
2022-07-29T05:40:14.619Z,4.20
2022-07-29T05:41:51.877Z,4.30
2022-07-29T05:43:24.217Z,4.07
2022-07-29T05:44:56.066Z,3.83
2022-07-29T05:46:27.919Z,4.10
2022-07-29T05:47:59.734Z,3.75
2022-07-29T05:49:31.481Z,4.57
2022-07-29T05:51:03.478Z,4.10
2022-07-29T05:52:35.252Z,4.18
2022-07-29T05:54:07.132Z,5.22
2022-07-29T05:55:38.839Z,4.80
2022-07-29T05:57:17.845Z,4.45
2022-07-29T05:58:49.575Z,4.25
2022-07-29T06:00:21.302Z,4.35
2022-07-29T06:01:53.158Z,4.60
2022-07-29T06:03:24.951Z,4.03
2022-07-29T06:04:56.749Z,4.13
2022-07-29T06:06:28.607Z,4.38
2022-07-29T06:08:00.294Z,5.28
2022-07-29T06:09:32.035Z,4.78
2022-07-29T06:11:04.553Z,4.80
2022-07-29T06:12:37.682Z,4.75
2022-07-29T06:14:09.467Z,4.50
2022-07-29T06:15:41.296Z,4.72
2022-07-29T06:17:13.056Z,4.32
2022-07-29T06:18:44.831Z,4.38
2022-07-29T06:20:16.575Z,4.70
2022-07-29T06:21:49.014Z,4.45
2022-07-29T06:23:21.371Z,4.35
2022-07-29T06:24:53.084Z,4.93
2022-07-29T06:26:30.355Z,3.97
2022-07-29T06:28:05.282Z,3.95
2022-07-29T06:29:37.128Z,4.28
2022-07-29T06:31:09.304Z,4.40
2022-07-29T06:32:43.432Z,4.03
2022-07-29T06:34:15.593Z,4.22
2022-07-29T06:35:53.655Z,4.80
2022-07-29T06:37:27.075Z,4.13
2022-07-29T06:39:01.404Z,5.60
2022-07-29T06:40:54.071Z,4.65
2022-07-29T06:42:25.948Z,4.70
2022-07-29T06:43:59.044Z,4.47
2022-07-29T06:45:30.996Z,4.35
2022-07-29T06:47:02.982Z,4.13
2022-07-29T06:48:35.266Z,4.80
2022-07-29T06:50:07.901Z,5.90
2022-07-29T06:51:39.608Z,4.70
2022-07-29T06:53:11.349Z,4.28
2022-07-29T06:54:49.110Z,4.80
2022-07-29T06:56:20.880Z,4.38
2022-07-29T06:57:52.665Z,4.70
2022-07-29T06:59:33.456Z,4.85
2022-07-29T07:01:07.814Z,4.20
2022-07-29T07:02:39.767Z,4.30
2022-07-29T07:04:12.682Z,4.60
2022-07-29T07:05:45.678Z,4.97
2022-07-29T07:07:17.380Z,4.50
2022-07-29T07:08:49.731Z,4.43
2022-07-29T07:10:21.443Z,4.57
2022-07-29T07:11:53.177Z,5.35
2022-07-29T07:13:25.151Z,4.90
2022-07-29T07:14:58.179Z,5.25
2022-07-29T07:16:29.993Z,4.70
2022-07-29T07:18:01.754Z,5.43
2022-07-29T07:19:33.833Z,5.50
2022-07-29T07:21:06.623Z,5.63
2022-07-29T07:22:39.023Z,5.30
2022-07-29T07:24:10.888Z,5.65
2022-07-29T07:25:43.048Z,5.55
2022-07-29T07:27:14.953Z,5.70
2022-07-29T07:28:46.649Z,5.53
2022-07-29T07:30:19.789Z,5.20
2022-07-29T07:31:51.618Z,5.78
2022-07-29T07:33:23.643Z,5.82
2022-07-29T07:34:55.455Z,6.07
2022-07-29T07:36:27.176Z,5.85
2022-07-29T07:37:58.987Z,5.28
2022-07-29T07:39:30.935Z,6.10
2022-07-29T07:41:02.811Z,5.68
2022-07-29T07:42:34.562Z,5.85
2022-07-29T07:44:06.987Z,5.45
2022-07-29T07:45:41.102Z,5.85
2022-07-29T07:47:12.996Z,5.82
2022-07-29T07:48:45.267Z,5.57
2022-07-29T07:50:19.200Z,5.85
2022-07-29T07:51:51.276Z,5.78
2022-07-29T07:53:23.298Z,6.00
2022-07-29T07:54:55.112Z,5.60
2022-07-29T07:56:30.669Z,5.30
2022-07-29T07:58:05.005Z,5.93
2022-07-29T07:59:36.828Z,5.72
2022-07-29T08:01:10.894Z,5.65
2022-07-29T08:02:43.907Z,5.90
2022-07-29T08:04:16.013Z,5.72
2022-07-29T08:05:48.431Z,5.60
2022-07-29T08:07:20.213Z,6.20
2022-07-29T08:08:52.060Z,6.15
2022-07-29T08:10:42.473Z,5.40
2022-07-29T08:12:14.211Z,6.40
2022-07-29T08:13:45.986Z,5.90
2022-07-29T08:15:17.770Z,6.13
2022-07-29T08:16:51.785Z,6.15
2022-07-29T08:18:23.638Z,6.53
2022-07-29T08:19:55.450Z,6.10
2022-07-29T08:21:27.260Z,7.72
2022-07-29T08:22:59.009Z,7.75
2022-07-29T08:24:53.437Z,7.80
2022-07-29T08:26:27.313Z,8.07
2022-07-29T08:27:59.761Z,7.80
2022-07-29T08:29:31.554Z,7.25
2022-07-29T08:31:04.372Z,7.03
2022-07-29T08:32:53.349Z,6.03
2022-07-29T08:34:28.108Z,5.15
2022-07-29T08:36:00.022Z,5.50
2022-07-29T08:37:31.739Z,5.50
2022-07-29T08:39:03.884Z,5.65
2022-07-29T08:40:35.979Z,5.65
2022-07-29T08:42:07.740Z,5.40
2022-07-29T08:43:41.862Z,5.47
2022-07-29T08:45:13.858Z,5.40
2022-07-29T08:46:45.951Z,5.68
2022-07-29T08:48:21.523Z,5.55
2022-07-29T08:49:53.337Z,5.78
2022-07-29T08:51:28.133Z,6.25
2022-07-29T08:53:00.355Z,5.93
2022-07-29T08:54:32.517Z,5.70
2022-07-29T08:56:04.941Z,5.70
2022-07-29T08:57:37.386Z,5.53
2022-07-29T08:59:10.442Z,5.65
2022-07-29T09:00:56.571Z,4.95
2022-07-29T09:02:40.077Z,5.65
2022-07-29T09:04:14.164Z,5.22
2022-07-29T09:05:48.240Z,5.30
2022-07-29T09:07:20.193Z,5.75
2022-07-29T09:08:52.084Z,6.03
2022-07-29T09:10:24.177Z,5.93
2022-07-29T09:11:56.533Z,5.90
2022-07-29T09:13:28.580Z,5.28
2022-07-29T09:15:00.258Z,5.45
2022-07-29T09:16:53.094Z,5.47
2022-07-29T09:18:34.840Z,5.63
2022-07-29T09:20:12.898Z,4.80
2022-07-29T09:22:00.092Z,5.57
2022-07-29T09:23:31.978Z,5.93
2022-07-29T09:25:04.203Z,5.35
2022-07-29T09:26:37.537Z,6.03
2022-07-29T09:28:10.412Z,5.53
2022-07-29T09:29:42.124Z,5.25
2022-07-29T09:31:13.855Z,5.53
2022-07-29T09:33:04.086Z,5.63
2022-07-29T09:34:35.917Z,5.28
2022-07-29T09:36:10.774Z,5.65
2022-07-29T09:37:42.731Z,5.25
2022-07-29T09:39:15.667Z,5.82
2022-07-29T09:40:59.849Z,5.70
2022-07-29T09:42:36.642Z,5.28
2022-07-29T09:44:08.464Z,5.40
2022-07-29T09:45:40.704Z,5.47
2022-07-29T09:47:13.373Z,5.03
2022-07-29T09:48:45.169Z,5.07
2022-07-29T09:50:17.345Z,5.07
2022-07-29T09:52:05.476Z,5.78
2022-07-29T09:53:38.768Z,5.28
2022-07-29T09:55:13.742Z,5.70
2022-07-29T09:58:23.488Z,5.47
2022-07-29T10:00:00.332Z,5.57
2022-07-29T10:01:32.118Z,5.60
2022-07-29T10:03:04.057Z,5.50
2022-07-29T10:04:39.969Z,5.90
2022-07-29T10:06:14.458Z,6.07
2022-07-29T10:07:53.722Z,5.80
2022-07-29T10:11:10.504Z,5.45
2022-07-29T10:12:50.334Z,5.57
2022-07-29T10:14:22.049Z,5.88
2022-07-29T10:15:53.931Z,5.50
2022-07-29T10:17:25.728Z,5.80
2022-07-29T10:18:57.485Z,5.30
2022-07-29T10:20:29.623Z,5.35
2022-07-29T10:22:03.529Z,5.07
2022-07-29T10:23:46.402Z,5.07
2022-07-29T10:25:20.752Z,5.50
2022-07-29T10:26:53.890Z,4.95
2022-07-29T10:28:26.126Z,5.28
2022-07-29T10:29:57.851Z,4.93
2022-07-29T10:31:37.699Z,5.45
2022-07-29T10:33:27.813Z,5.22
2022-07-29T10:35:22.236Z,5.30
2022-07-29T10:37:06.691Z,5.63
2022-07-29T10:38:47.111Z,5.35
2022-07-29T10:40:47.689Z,4.65
2022-07-29T10:44:12.369Z,4.43
2022-07-29T10:45:50.572Z,5.13
2022-07-29T10:47:25.985Z,5.20
2022-07-29T10:49:15.292Z,4.88
2022-07-29T10:50:57.759Z,4.70
2022-07-29T10:52:54.437Z,5.15
2022-07-29T10:54:48.729Z,4.57
2022-07-29T10:56:29.499Z,4.45
2022-07-29T10:58:15.959Z,4.38
2022-07-29T10:59:52.934Z,4.50
2022-07-29T11:01:37.100Z,4.53
2022-07-29T11:03:10.982Z,5.15
2022-07-29T11:05:00.752Z,4.65
2022-07-29T11:08:26.519Z,4.75
2022-07-29T11:10:26.848Z,4.70
2022-07-29T11:12:03.546Z,4.25
2022-07-29T11:13:52.528Z,4.03
2022-07-29T11:15:25.270Z,4.20
2022-07-29T11:17:05.959Z,4.10
2022-07-29T11:19:26.176Z,4.45
2022-07-29T11:20:58.527Z,4.28
2022-07-29T11:22:35.311Z,5.32
2022-07-29T11:24:13.504Z,6.00
2022-07-29T11:26:28.343Z,5.63
2022-07-29T11:28:23.066Z,6.57
2022-07-29T11:29:58.894Z,6.05
2022-07-29T11:31:39.089Z,7.30
2022-07-29T11:33:54.356Z,5.78
2022-07-29T11:37:28.385Z,7.03
2022-07-29T11:39:26.459Z,7.60
2022-07-29T11:41:31.770Z,6.70
2022-07-29T11:43:07.270Z,6.88
2022-07-29T11:44:57.421Z,6.25
2022-07-29T11:46:49.973Z,6.90
2022-07-29T11:48:28.692Z,5.30
2022-07-29T11:50:06.117Z,6.60
2022-07-29T11:51:48.721Z,6.13
2022-07-29T11:53:21.729Z,6.75
2022-07-29T11:55:00.897Z,6.93
2022-07-29T11:56:46.856Z,6.88
2022-07-29T11:58:25.082Z,6.45
2022-07-29T12:02:12.141Z,6.32
2022-07-29T12:03:46.123Z,6.93
2022-07-29T12:05:36.140Z,6.57
2022-07-29T12:07:08.798Z,6.68
2022-07-29T12:08:43.334Z,6.40
2022-07-29T12:10:20.151Z,7.10
2022-07-29T12:12:05.544Z,6.47
2022-07-29T12:13:40.676Z,6.22
2022-07-29T12:15:15.863Z,6.20
2022-07-29T12:16:47.639Z,6.43
2022-07-29T12:18:24.222Z,6.80
2022-07-29T12:19:57.180Z,5.82
2022-07-29T12:21:29.475Z,5.40
2022-07-29T12:23:06.357Z,5.78
2022-07-29T12:24:45.064Z,6.05
2022-07-29T12:26:25.612Z,6.40
2022-07-29T12:28:03.139Z,5.68
2022-07-29T12:29:35.966Z,6.18
2022-07-29T12:31:14.087Z,5.80
2022-07-29T12:32:48.372Z,5.70
2022-07-29T12:34:20.643Z,5.50
2022-07-29T12:36:17.122Z,5.57
2022-07-29T12:37:53.010Z,6.10
2022-07-29T12:39:28.928Z,7.53
2022-07-29T12:41:01.944Z,6.95
2022-07-29T12:42:36.809Z,7.15
2022-07-29T12:44:10.363Z,6.55
2022-07-29T12:45:43.690Z,7.07
2022-07-29T12:47:15.595Z,6.53
2022-07-29T12:48:55.645Z,6.50
2022-07-29T12:50:27.535Z,6.80
2022-07-29T12:51:59.714Z,6.80
2022-07-29T12:53:31.808Z,6.43
2022-07-29T12:55:05.129Z,7.00
2022-07-29T12:56:45.553Z,6.55
2022-07-29T12:58:30.765Z,6.35
2022-07-29T13:00:09.596Z,6.95
2022-07-29T13:01:41.515Z,6.53
2022-07-29T13:03:13.271Z,6.95
2022-07-29T13:04:56.777Z,6.35
2022-07-29T13:06:33.965Z,5.50
2022-07-29T13:08:21.891Z,5.93
2022-07-29T13:09:54.353Z,5.47
2022-07-29T13:11:30.685Z,5.10
2022-07-29T13:13:08.948Z,5.25
2022-07-29T13:14:42.208Z,5.38
2022-07-29T13:16:15.529Z,5.40
2022-07-29T13:17:48.058Z,5.00
2022-07-29T13:19:19.841Z,5.63
2022-07-29T13:20:51.930Z,5.72
2022-07-29T13:22:25.128Z,5.10
2022-07-29T13:23:56.871Z,5.70
2022-07-29T13:25:31.378Z,5.05
2022-07-29T13:27:05.718Z,4.78
2022-07-29T13:28:37.757Z,5.50
2022-07-29T13:30:11.584Z,5.03
2022-07-29T13:31:45.066Z,4.97
2022-07-29T13:33:16.861Z,4.97
2022-07-29T13:34:48.639Z,4.80
2022-07-29T13:36:20.317Z,4.50
2022-07-29T13:37:52.140Z,4.90
2022-07-29T13:39:23.819Z,5.00
2022-07-29T13:40:55.640Z,4.30
2022-07-29T13:42:27.702Z,4.53
2022-07-29T13:43:59.495Z,5.18
2022-07-29T13:45:31.239Z,4.32
2022-07-29T13:47:04.494Z,5.20
2022-07-29T13:48:36.475Z,5.15
2022-07-29T13:50:11.037Z,4.55
2022-07-29T13:51:42.771Z,4.18
2022-07-29T13:53:17.460Z,4.28
2022-07-29T13:54:50.174Z,4.63
2022-07-29T13:56:21.894Z,4.43
2022-07-29T13:57:53.599Z,4.15
2022-07-29T13:59:25.321Z,4.32
2022-07-29T14:00:57.885Z,4.80
2022-07-29T14:02:31.060Z,4.53
2022-07-29T14:04:03.127Z,4.53
2022-07-29T14:05:34.974Z,5.22
2022-07-29T14:07:07.129Z,4.60
2022-07-29T14:08:39.129Z,4.57
2022-07-29T14:10:11.111Z,4.40
2022-07-29T14:11:42.883Z,5.15
2022-07-29T14:13:25.357Z,4.45
2022-07-29T14:14:58.167Z,4.47
2022-07-29T14:16:30.112Z,4.85
2022-07-29T14:18:03.714Z,4.00
2022-07-29T14:19:39.246Z,4.68
2022-07-29T14:21:11.162Z,3.83
2022-07-29T14:22:45.064Z,4.47
2022-07-29T14:24:21.423Z,4.07
2022-07-29T14:25:54.663Z,3.85
2022-07-29T14:27:37.410Z,3.53
2022-07-29T14:29:10.244Z,3.75
2022-07-29T14:30:42.022Z,3.75
2022-07-29T14:32:15.857Z,3.53
2022-07-29T14:33:49.290Z,3.58
2022-07-29T14:35:21.256Z,3.40
2022-07-29T14:36:56.357Z,3.60
2022-07-29T14:38:28.197Z,3.35
2022-07-29T14:40:03.584Z,3.92
2022-07-29T14:41:35.395Z,3.28
2022-07-29T14:43:07.088Z,3.38
2022-07-29T14:44:38.843Z,3.47
2022-07-29T14:46:10.720Z,3.40
2022-07-29T14:47:42.455Z,3.33
2022-07-29T14:49:15.941Z,3.25
2022-07-29T14:50:47.805Z,3.30
2022-07-29T14:52:19.538Z,2.90
2022-07-29T14:53:51.442Z,2.95
2022-07-29T14:55:23.611Z,2.83
2022-07-29T14:56:58.028Z,3.05
2022-07-29T14:58:30.135Z,3.15
2022-07-29T15:00:02.141Z,3.20
2022-07-29T15:01:33.914Z,3.30
2022-07-29T15:03:06.269Z,3.20
2022-07-29T15:04:39.374Z,3.33
2022-07-29T15:06:11.048Z,3.28
2022-07-29T15:07:42.785Z,3.97
2022-07-29T15:09:14.612Z,3.53
2022-07-29T15:10:46.371Z,3.00
2022-07-29T15:12:18.437Z,3.00
2022-07-29T15:13:50.155Z,3.20
2022-07-29T15:15:22.132Z,3.42
2022-07-29T15:16:53.978Z,3.40
2022-07-29T15:18:25.938Z,2.97
2022-07-29T15:19:58.990Z,3.25
2022-07-29T15:21:30.746Z,3.00
2022-07-29T15:23:02.513Z,3.63
2022-07-29T15:24:34.307Z,3.45
2022-07-29T15:26:06.015Z,3.10
2022-07-29T15:27:37.785Z,3.17
2022-07-29T15:29:09.649Z,3.08
2022-07-29T15:30:44.093Z,3.55
2022-07-29T15:32:15.970Z,3.20
2022-07-29T15:33:47.930Z,2.88
2022-07-29T15:35:21.102Z,3.60
2022-07-29T15:36:53.688Z,3.03
2022-07-29T15:38:28.597Z,3.00
2022-07-29T15:40:01.204Z,3.70
2022-07-29T15:41:34.636Z,3.75
2022-07-29T15:43:06.749Z,3.50
2022-07-29T15:44:38.695Z,3.40
2022-07-29T15:46:32.319Z,3.28
2022-07-29T15:48:05.791Z,3.38
2022-07-29T15:49:48.405Z,3.35
2022-07-29T15:51:22.466Z,3.30
2022-07-29T15:52:54.160Z,3.28
2022-07-29T15:54:25.958Z,4.10
2022-07-29T15:55:57.678Z,3.50
2022-07-29T15:57:29.507Z,3.15
2022-07-29T15:59:01.258Z,3.20
2022-07-29T16:00:33.809Z,3.50
2022-07-29T16:02:05.854Z,3.28
2022-07-29T16:03:41.960Z,3.55
2022-07-29T16:05:16.080Z,3.70
2022-07-29T16:06:50.184Z,3.55
2022-07-29T16:08:21.924Z,3.63
2022-07-29T16:09:53.698Z,4.43
2022-07-29T16:11:25.527Z,3.75
2022-07-29T16:12:57.271Z,3.45
2022-07-29T16:14:29.087Z,3.25
2022-07-29T16:16:00.814Z,3.65
2022-07-29T16:17:34.913Z,3.70
2022-07-29T16:19:07.337Z,4.07
2022-07-29T16:20:39.053Z,3.75
2022-07-29T16:22:12.594Z,3.65
2022-07-29T16:23:44.407Z,3.50
2022-07-29T16:25:16.164Z,3.70
2022-07-29T16:26:47.927Z,3.58
2022-07-29T16:28:19.768Z,3.72
2022-07-29T16:29:51.540Z,3.60
2022-07-29T16:31:23.863Z,4.03
2022-07-29T16:32:55.601Z,3.58
2022-07-29T16:34:27.364Z,4.40
2022-07-29T16:35:59.307Z,3.78
2022-07-29T16:37:35.453Z,4.18
2022-07-29T16:39:07.219Z,3.92
2022-07-29T16:40:38.915Z,3.90
2022-07-29T16:42:21.292Z,3.80
2022-07-29T16:44:03.223Z,3.92
2022-07-29T16:45:37.845Z,4.40
2022-07-29T16:47:18.116Z,4.25
2022-07-29T16:48:50.908Z,4.03
2022-07-29T16:50:22.814Z,3.70
2022-07-29T16:51:54.823Z,3.70
2022-07-29T16:53:30.121Z,4.10
2022-07-29T16:55:02.008Z,4.07
2022-07-29T16:56:33.743Z,3.80
2022-07-29T16:58:05.479Z,4.05
2022-07-29T16:59:43.625Z,4.00
2022-07-29T17:01:17.040Z,4.10
2022-07-29T17:02:48.979Z,3.83
2022-07-29T17:04:20.988Z,4.05
2022-07-29T17:05:54.828Z,3.53
2022-07-29T17:07:26.753Z,3.70
2022-07-29T17:08:59.795Z,3.65
2022-07-29T17:10:31.807Z,3.58
2022-07-29T17:12:04.044Z,3.65
2022-07-29T17:13:35.827Z,3.60
2022-07-29T17:15:09.613Z,3.55
2022-07-29T17:16:41.459Z,3.83
2022-07-29T17:18:13.288Z,3.30
2022-07-29T17:19:45.036Z,3.22
2022-07-29T17:21:16.870Z,3.90
2022-07-29T17:22:48.644Z,3.75
2022-07-29T17:24:21.736Z,3.55
2022-07-29T17:25:56.192Z,3.70
2022-07-29T17:27:27.925Z,3.90
2022-07-29T17:28:59.690Z,3.67
2022-07-29T17:30:31.506Z,3.83
2022-07-29T17:32:03.621Z,3.90
2022-07-29T17:33:35.609Z,3.67
2022-07-29T17:35:28.704Z,4.20
2022-07-29T17:37:00.877Z,3.67
2022-07-29T17:38:32.771Z,3.50
2022-07-29T17:40:07.539Z,3.75
2022-07-29T17:41:40.973Z,3.30
2022-07-29T17:43:12.732Z,3.33
2022-07-29T17:44:44.544Z,3.83
2022-07-29T17:46:16.820Z,3.65
2022-07-29T17:47:50.498Z,3.53
2022-07-29T17:49:22.410Z,3.80
2022-07-29T17:50:54.172Z,4.00
2022-07-29T17:52:26.262Z,3.58
2022-07-29T17:53:58.331Z,3.90
2022-07-29T17:55:31.428Z,3.92
2022-07-29T17:57:03.531Z,3.60
2022-07-29T17:58:35.443Z,4.15
2022-07-29T18:00:08.487Z,3.90
2022-07-29T18:01:41.366Z,4.07
2022-07-29T18:03:13.570Z,3.55
2022-07-29T18:04:45.423Z,3.60
2022-07-29T18:06:22.311Z,3.78
2022-07-29T18:07:55.778Z,3.83
2022-07-29T18:09:27.598Z,4.00
2022-07-29T18:11:00.656Z,3.75
2022-07-29T18:12:32.468Z,3.47
2022-07-29T18:14:04.250Z,3.90
2022-07-29T18:15:36.027Z,3.63
2022-07-29T18:17:07.747Z,3.80
2022-07-29T18:18:39.636Z,4.10
2022-07-29T18:20:11.811Z,4.28
2022-07-29T18:21:54.455Z,4.28
2022-07-29T18:23:27.336Z,4.10
2022-07-29T18:24:59.101Z,3.70
2022-07-29T18:26:32.233Z,3.78
2022-07-29T18:28:04.956Z,3.85
2022-07-29T18:29:36.740Z,3.35
2022-07-29T18:31:08.590Z,3.80
2022-07-29T18:32:40.832Z,3.90
2022-07-29T18:34:12.672Z,4.10
2022-07-29T18:35:45.350Z,4.13
2022-07-29T18:37:17.279Z,4.20
2022-07-29T18:39:09.070Z,4.40
2022-07-29T18:40:45.758Z,4.60
2022-07-29T18:42:19.244Z,4.60
2022-07-29T18:43:50.966Z,4.28
2022-07-29T18:45:23.194Z,4.65
2022-07-29T18:47:01.241Z,4.03
2022-07-29T18:48:34.346Z,4.32
2022-07-29T18:50:07.532Z,4.45
2022-07-29T18:51:39.522Z,4.07
2022-07-29T18:53:11.321Z,4.20
2022-07-29T18:54:43.068Z,4.65
2022-07-29T18:56:14.832Z,4.35
2022-07-29T18:57:55.181Z,4.50
2022-07-29T18:59:30.302Z,4.60
2022-07-29T19:01:02.271Z,4.32
2022-07-29T19:02:34.139Z,4.28
2022-07-29T19:04:06.063Z,4.30
2022-07-29T19:05:37.876Z,4.35
2022-07-29T19:07:09.832Z,4.60
2022-07-29T19:08:41.940Z,4.30
2022-07-29T19:10:13.806Z,4.00
2022-07-29T19:11:45.530Z,4.68
2022-07-29T19:13:18.731Z,4.20
2022-07-29T19:14:50.460Z,4.50
2022-07-29T19:16:22.223Z,4.20
2022-07-29T19:17:57.691Z,4.18
2022-07-29T19:19:32.375Z,4.55
2022-07-29T19:21:04.108Z,4.93
2022-07-29T19:22:36.966Z,5.10
2022-07-29T19:24:13.628Z,4.60
2022-07-29T19:25:53.678Z,4.38
2022-07-29T19:27:26.004Z,4.30
2022-07-29T19:28:59.086Z,4.13
2022-07-29T19:30:31.023Z,3.80
2022-07-29T19:32:02.839Z,3.80
2022-07-29T19:33:34.672Z,4.18
2022-07-29T19:35:25.170Z,4.05
2022-07-29T19:36:59.975Z,3.65
2022-07-29T19:38:32.121Z,3.88
2022-07-29T19:40:04.720Z,3.75
2022-07-29T19:41:36.468Z,3.90
2022-07-29T19:43:49.488Z,3.75
2022-07-29T19:45:03.079Z,4.05
2022-07-29T19:46:34.935Z,4.00
2022-07-29T19:48:07.725Z,3.90
2022-07-29T19:49:40.476Z,4.20
2022-07-29T19:51:12.307Z,3.85
2022-07-29T19:52:45.011Z,4.05
2022-07-29T19:54:18.201Z,3.72
2022-07-29T19:55:50.313Z,4.20
2022-07-29T19:57:22.112Z,4.05
2022-07-29T19:58:56.342Z,4.40
2022-07-29T20:00:31.237Z,4.35
2022-07-29T20:02:03.103Z,4.53
2022-07-29T20:03:34.977Z,4.28
2022-07-29T20:05:07.941Z,4.20
2022-07-29T20:06:39.867Z,4.28
2022-07-29T20:08:11.795Z,4.47
2022-07-29T20:09:44.377Z,5.00
2022-07-29T20:11:16.799Z,4.78
2022-07-29T20:12:48.773Z,4.97
2022-07-29T20:14:24.411Z,4.68
2022-07-29T20:15:57.922Z,4.88
2022-07-29T20:17:29.791Z,4.57
2022-07-29T20:19:01.822Z,4.72
2022-07-29T20:20:33.711Z,5.00
2022-07-29T20:22:05.611Z,4.75
2022-07-29T20:23:37.558Z,4.57
2022-07-29T20:25:09.934Z,5.20
2022-07-29T20:26:49.238Z,5.00
2022-07-29T20:29:53.162Z,4.65
2022-07-29T20:31:27.713Z,4.80
2022-07-29T20:33:00.544Z,4.80
2022-07-29T20:34:32.455Z,4.53
2022-07-29T20:36:07.680Z,5.07
2022-07-29T20:37:56.014Z,5.15
2022-07-29T20:39:31.072Z,4.97
2022-07-29T20:41:02.851Z,5.38
2022-07-29T20:42:36.787Z,5.07
2022-07-29T20:44:08.725Z,5.30
2022-07-29T20:45:40.524Z,5.10
2022-07-29T20:47:15.980Z,5.30
2022-07-29T20:48:48.328Z,5.20
2022-07-29T20:50:23.800Z,5.18
2022-07-29T20:51:56.244Z,5.00
2022-07-29T20:53:28.036Z,5.50
2022-07-29T20:54:59.753Z,5.65
2022-07-29T20:56:31.567Z,5.32
2022-07-29T20:58:04.863Z,5.20
2022-07-29T20:59:37.019Z,4.97
2022-07-29T21:01:09.667Z,5.30
2022-07-29T21:02:42.949Z,5.53
2022-07-29T21:04:14.784Z,5.30
2022-07-29T21:05:46.543Z,5.25
2022-07-29T21:07:20.202Z,5.63
2022-07-29T21:08:52.104Z,5.10
2022-07-29T21:10:24.011Z,4.95
2022-07-29T21:11:55.798Z,5.32
2022-07-29T21:13:27.813Z,5.22